VALOR21 ETAR-ETAR
Flight info
| Callsign | VALOR21 |
|---|---|
| Flight time | 2h 17m |
| Altitude | 33000 |
| Route | BOLK2E RINEX Z54 ROLSO N851 RIMKI Z99 LOHRE N746 TIKNI T279 TAMEB T278 KLF DCT KISUC/M078F300 Z20 MAG L986 POVEL Q201 PODER Z189 RUNER DCT SPA DCT MAPIG/N0200A050 |
| Aircraft | LJ35/M-SGHRWXY/SB1 |
Departure
| Time | 2026-04-28 17:12 |
|---|---|
| Airport | Ramstein Air Base (ETAR) |
Arrival
| Time | 2026-04-28 19:29 |
|---|---|
| Airport | Ramstein Air Base (ETAR) |
| Time | Latitude | Longitude | Altitude | Speed | Heading |
|---|---|---|---|---|---|
| 2026-04-28 16:50 | 49.42725 | 7.58317 | 769 ft | 0 kts | 184° |
| 2026-04-28 17:06 | 49.42717 | 7.58315 | 769 ft | 2 kts | 216° |
| 2026-04-28 17:07 | 49.42717 | 7.58287 | 769 ft | 5 kts | 280° |
| 2026-04-28 17:07 | 49.42742 | 7.58245 | 769 ft | 8 kts | 8° |
| 2026-04-28 17:07 | 49.42801 | 7.58290 | 769 ft | 11 kts | 39° |
| 2026-04-28 17:07 | 49.42868 | 7.58373 | 769 ft | 14 kts | 38° |
| 2026-04-28 17:08 | 49.42949 | 7.58440 | 770 ft | 14 kts | 6° |
| 2026-04-28 17:08 | 49.43045 | 7.58431 | 769 ft | 14 kts | 356° |
| 2026-04-28 17:08 | 49.43141 | 7.58422 | 769 ft | 5 kts | 356° |
| 2026-04-28 17:08 | 49.43147 | 7.58422 | 769 ft | 0 kts | 356° |
| 2026-04-28 17:09 | 49.43148 | 7.58421 | 769 ft | 1 kts | 356° |
| 2026-04-28 17:10 | 49.43179 | 7.58418 | 769 ft | 7 kts | 356° |
| 2026-04-28 17:10 | 49.43246 | 7.58412 | 768 ft | 12 kts | 354° |
| 2026-04-28 17:10 | 49.43306 | 7.58440 | 767 ft | 5 kts | 78° |
| 2026-04-28 17:10 | 49.43307 | 7.58446 | 767 ft | 0 kts | 82° |
| 2026-04-28 17:11 | 49.43314 | 7.58517 | 767 ft | 40 kts | 82° |
| 2026-04-28 17:11 | 49.43406 | 7.59575 | 777 ft | 156 kts | 86° |
| 2026-04-28 17:11 | 49.43539 | 7.61714 | 1076 ft | 232 kts | 86° |
| 2026-04-28 17:12 | 49.43611 | 7.64063 | 1516 ft | 208 kts | 85° |
| 2026-04-28 17:12 | 49.43694 | 7.66186 | 1946 ft | 191 kts | 82° |
| 2026-04-28 17:12 | 49.44172 | 7.67999 | 2300 ft | 184 kts | 51° |
| 2026-04-28 17:12 | 49.45314 | 7.68970 | 2658 ft | 201 kts | 19° |
| 2026-04-28 17:13 | 49.46690 | 7.69503 | 3221 ft | 206 kts | 24° |
| 2026-04-28 17:13 | 49.47888 | 7.70707 | 3790 ft | 208 kts | 46° |
| 2026-04-28 17:13 | 49.48741 | 7.72514 | 4369 ft | 211 kts | 62° |
| 2026-04-28 17:13 | 49.49482 | 7.74505 | 4962 ft | 216 kts | 60° |
| 2026-04-28 17:14 | 49.50246 | 7.76516 | 5546 ft | 220 kts | 60° |
| 2026-04-28 17:14 | 49.51027 | 7.78565 | 6135 ft | 223 kts | 61° |
| 2026-04-28 17:14 | 49.51795 | 7.80610 | 6714 ft | 223 kts | 61° |
| 2026-04-28 17:14 | 49.52576 | 7.82697 | 7290 ft | 225 kts | 62° |
| 2026-04-28 17:15 | 49.53364 | 7.84793 | 7861 ft | 227 kts | 62° |
| 2026-04-28 17:15 | 49.54157 | 7.86904 | 8444 ft | 228 kts | 62° |
| 2026-04-28 17:15 | 49.54737 | 7.89168 | 9014 ft | 229 kts | 79° |
| 2026-04-28 17:15 | 49.54783 | 7.91602 | 9603 ft | 228 kts | 98° |
| 2026-04-28 17:16 | 49.54317 | 7.93900 | 10172 ft | 229 kts | 117° |
| 2026-04-28 17:16 | 49.53268 | 7.96048 | 10716 ft | 278 kts | 137° |
| 2026-04-28 17:16 | 49.51485 | 7.97804 | 11320 ft | 329 kts | 152° |
| 2026-04-28 17:16 | 49.50116 | 7.98862 | 12359 ft | 327 kts | 154° |
| 2026-04-28 17:17 | 49.48095 | 8.00581 | 14089 ft | 341 kts | 144° |
| 2026-04-28 17:17 | 49.45863 | 8.04133 | 15958 ft | 357 kts | 126° |
| 2026-04-28 17:17 | 49.45026 | 8.06394 | 17006 ft | 362 kts | 115° |
| 2026-04-28 17:17 | 49.44222 | 8.10178 | 18344 ft | 377 kts | 103° |
| 2026-04-28 17:18 | 49.43642 | 8.14109 | 19560 ft | 386 kts | 103° |
| 2026-04-28 17:18 | 49.43013 | 8.18105 | 20783 ft | 393 kts | 104° |
| 2026-04-28 17:18 | 49.42195 | 8.22170 | 21959 ft | 402 kts | 110° |
| 2026-04-28 17:18 | 49.41248 | 8.26267 | 23093 ft | 412 kts | 110° |
| 2026-04-28 17:19 | 49.40296 | 8.30469 | 24083 ft | 421 kts | 110° |
| 2026-04-28 17:19 | 49.39354 | 8.34780 | 24923 ft | 430 kts | 110° |
| 2026-04-28 17:19 | 49.38392 | 8.39186 | 25736 ft | 439 kts | 110° |
| 2026-04-28 17:19 | 49.37391 | 8.43667 | 26518 ft | 448 kts | 111° |
| 2026-04-28 17:20 | 49.36361 | 8.48220 | 27160 ft | 456 kts | 111° |
| 2026-04-28 17:20 | 49.35320 | 8.52854 | 27875 ft | 464 kts | 111° |
| 2026-04-28 17:20 | 49.34268 | 8.57569 | 28563 ft | 471 kts | 111° |
| 2026-04-28 17:20 | 49.33416 | 8.62479 | 29212 ft | 482 kts | 102° |
| 2026-04-28 17:21 | 49.33113 | 8.67638 | 29836 ft | 491 kts | 91° |
| 2026-04-28 17:21 | 49.33283 | 8.72924 | 30382 ft | 498 kts | 86° |
| 2026-04-28 17:21 | 49.33514 | 8.78194 | 30890 ft | 504 kts | 87° |
| 2026-04-28 17:22 | 49.33914 | 8.89025 | 31849 ft | 514 kts | 88° |
| 2026-04-28 17:22 | 49.34117 | 8.94527 | 32208 ft | 520 kts | 87° |
| 2026-04-28 17:22 | 49.34366 | 9.00099 | 32539 ft | 525 kts | 84° |
| 2026-04-28 17:23 | 49.36285 | 9.10932 | 33192 ft | 528 kts | 63° |
| 2026-04-28 17:23 | 49.37949 | 9.15847 | 33119 ft | 504 kts | 55° |
| 2026-04-28 17:23 | 49.40006 | 9.20137 | 33093 ft | 490 kts | 46° |
| 2026-04-28 17:23 | 49.42365 | 9.23918 | 33095 ft | 490 kts | 37° |
| 2026-04-28 17:24 | 49.47968 | 9.29819 | 33093 ft | 486 kts | 20° |
| 2026-04-28 17:24 | 49.51039 | 9.31801 | 33105 ft | 471 kts | 12° |
| 2026-04-28 17:24 | 49.54148 | 9.33099 | 33101 ft | 468 kts | 4° |
| 2026-04-28 17:25 | 49.63893 | 9.34711 | 33121 ft | 471 kts | 359° |
| 2026-04-28 17:26 | 49.70419 | 9.35725 | 33123 ft | 470 kts | 359° |
| 2026-04-28 17:26 | 49.76893 | 9.37108 | 33111 ft | 478 kts | 8° |
| 2026-04-28 17:27 | 49.83350 | 9.39641 | 33130 ft | 477 kts | 8° |
| 2026-04-28 17:27 | 49.89797 | 9.42076 | 33132 ft | 475 kts | 8° |
| 2026-04-28 17:28 | 49.96217 | 9.44583 | 33137 ft | 475 kts | 8° |
| 2026-04-28 17:28 | 50.05811 | 9.48612 | 33115 ft | 481 kts | 17° |
| 2026-04-28 17:29 | 50.11550 | 9.54022 | 33127 ft | 489 kts | 31° |
| 2026-04-28 17:30 | 50.19825 | 9.63352 | 33147 ft | 489 kts | 31° |
| 2026-04-28 17:30 | 50.28089 | 9.72712 | 33164 ft | 487 kts | 31° |
| 2026-04-28 17:31 | 50.36281 | 9.81992 | 33168 ft | 486 kts | 31° |
| 2026-04-28 17:32 | 50.44013 | 9.92357 | 33163 ft | 493 kts | 43° |
| 2026-04-28 17:32 | 50.48709 | 10.00175 | 33185 ft | 489 kts | 43° |
| 2026-04-28 17:33 | 50.53380 | 10.07934 | 33199 ft | 489 kts | 43° |
| 2026-04-28 17:33 | 50.57250 | 10.14415 | 33201 ft | 488 kts | 43° |
| 2026-04-28 17:34 | 50.62664 | 10.23474 | 33209 ft | 484 kts | 43° |
| 2026-04-28 17:34 | 50.66727 | 10.31885 | 33206 ft | 491 kts | 58° |
| 2026-04-28 17:35 | 50.69971 | 10.41386 | 33217 ft | 492 kts | 58° |
| 2026-04-28 17:35 | 50.73242 | 10.50866 | 33216 ft | 492 kts | 58° |
| 2026-04-28 17:36 | 50.76485 | 10.60395 | 33223 ft | 492 kts | 58° |
| 2026-04-28 17:36 | 50.79739 | 10.69931 | 33227 ft | 492 kts | 58° |
| 2026-04-28 17:37 | 50.82974 | 10.79486 | 33233 ft | 492 kts | 59° |
| 2026-04-28 17:37 | 50.86174 | 10.88951 | 33244 ft | 488 kts | 58° |
| 2026-04-28 17:38 | 50.89373 | 10.98459 | 33246 ft | 488 kts | 58° |
| 2026-04-28 17:38 | 50.92570 | 11.07938 | 33239 ft | 488 kts | 58° |
| 2026-04-28 17:39 | 50.95719 | 11.17405 | 33244 ft | 488 kts | 59° |
| 2026-04-28 17:40 | 51.00464 | 11.31676 | 33259 ft | 488 kts | 58° |
| 2026-04-28 17:40 | 51.03615 | 11.41205 | 33281 ft | 484 kts | 59° |
| 2026-04-28 17:41 | 51.06742 | 11.50678 | 33266 ft | 483 kts | 59° |
| 2026-04-28 17:41 | 51.09851 | 11.60157 | 33266 ft | 483 kts | 59° |
| 2026-04-28 17:42 | 51.12946 | 11.69639 | 33270 ft | 482 kts | 58° |
| 2026-04-28 17:42 | 51.16045 | 11.79136 | 33269 ft | 482 kts | 59° |
| 2026-04-28 17:43 | 51.19116 | 11.88643 | 33266 ft | 483 kts | 59° |
| 2026-04-28 17:43 | 51.22723 | 11.97468 | 33259 ft | 458 kts | 44° |
| 2026-04-28 17:43 | 51.24884 | 12.01107 | 32668 ft | 456 kts | 41° |
| 2026-04-28 17:44 | 51.27126 | 12.04812 | 31937 ft | 470 kts | 42° |
| 2026-04-28 17:44 | 51.29365 | 12.08579 | 31248 ft | 471 kts | 43° |
| 2026-04-28 17:44 | 51.31578 | 12.12360 | 30559 ft | 461 kts | 43° |
| 2026-04-28 17:44 | 51.33761 | 12.16054 | 29802 ft | 454 kts | 42° |
| 2026-04-28 17:45 | 51.35927 | 12.19687 | 28999 ft | 448 kts | 43° |
| 2026-04-28 17:45 | 51.38058 | 12.23285 | 28231 ft | 443 kts | 43° |
| 2026-04-28 17:45 | 51.40156 | 12.26854 | 27492 ft | 438 kts | 43° |
| 2026-04-28 17:45 | 51.42235 | 12.30394 | 26768 ft | 433 kts | 43° |
| 2026-04-28 17:46 | 51.44295 | 12.33890 | 26055 ft | 428 kts | 43° |
| 2026-04-28 17:46 | 51.46326 | 12.37339 | 25361 ft | 424 kts | 43° |
| 2026-04-28 17:46 | 51.48342 | 12.40778 | 24683 ft | 420 kts | 43° |
| 2026-04-28 17:46 | 51.50256 | 12.44285 | 24017 ft | 415 kts | 47° |
| 2026-04-28 17:47 | 51.51952 | 12.47935 | 23277 ft | 411 kts | 52° |
| 2026-04-28 17:47 | 51.53575 | 12.51671 | 22515 ft | 405 kts | 51° |
| 2026-04-28 17:47 | 51.55255 | 12.55266 | 21772 ft | 400 kts | 49° |
| 2026-04-28 17:47 | 51.56414 | 12.57626 | 21280 ft | 397 kts | 49° |
| 2026-04-28 17:48 | 51.58632 | 12.62270 | 20337 ft | 393 kts | 50° |
| 2026-04-28 17:48 | 51.60250 | 12.65800 | 19664 ft | 387 kts | 50° |
| 2026-04-28 17:48 | 51.61817 | 12.69182 | 18986 ft | 362 kts | 50° |
| 2026-04-28 17:48 | 51.63226 | 12.72178 | 18267 ft | 318 kts | 49° |
| 2026-04-28 17:49 | 51.64550 | 12.74981 | 17495 ft | 310 kts | 49° |
| 2026-04-28 17:49 | 51.65837 | 12.77731 | 16761 ft | 305 kts | 50° |
| 2026-04-28 17:49 | 51.67100 | 12.80449 | 16023 ft | 301 kts | 50° |
| 2026-04-28 17:49 | 51.68332 | 12.83100 | 15327 ft | 297 kts | 50° |
| 2026-04-28 17:50 | 51.69562 | 12.85742 | 14637 ft | 293 kts | 50° |
| 2026-04-28 17:50 | 51.70765 | 12.88333 | 14283 ft | 278 kts | 50° |
| 2026-04-28 17:50 | 51.71869 | 12.90721 | 14269 ft | 255 kts | 50° |
| 2026-04-28 17:50 | 51.72956 | 12.93052 | 14264 ft | 259 kts | 50° |
| 2026-04-28 17:51 | 51.74057 | 12.95420 | 13818 ft | 270 kts | 50° |
| 2026-04-28 17:51 | 51.75208 | 12.97903 | 13347 ft | 282 kts | 50° |
| 2026-04-28 17:51 | 51.76391 | 13.00470 | 12882 ft | 287 kts | 50° |
| 2026-04-28 17:51 | 51.77590 | 13.03069 | 12420 ft | 287 kts | 50° |
| 2026-04-28 17:52 | 51.78780 | 13.05649 | 11965 ft | 284 kts | 50° |
| 2026-04-28 17:52 | 51.79933 | 13.08152 | 11517 ft | 272 kts | 50° |
| 2026-04-28 17:52 | 51.82106 | 13.12872 | 10637 ft | 256 kts | 50° |
| 2026-04-28 17:53 | 51.83196 | 13.15088 | 10288 ft | 247 kts | 40° |
| 2026-04-28 17:53 | 51.84722 | 13.16398 | 10281 ft | 267 kts | 12° |
| 2026-04-28 17:53 | 51.86626 | 13.16393 | 10281 ft | 278 kts | 347° |
| 2026-04-28 17:53 | 51.88433 | 13.15356 | 10291 ft | 275 kts | 337° |
| 2026-04-28 17:54 | 51.90167 | 13.14068 | 10299 ft | 273 kts | 335° |
| 2026-04-28 17:54 | 51.91878 | 13.12736 | 10353 ft | 268 kts | 335° |
| 2026-04-28 17:54 | 51.93485 | 13.11465 | 10143 ft | 256 kts | 335° |
| 2026-04-28 17:54 | 51.95180 | 13.10125 | 9775 ft | 274 kts | 335° |
| 2026-04-28 17:55 | 51.96867 | 13.08785 | 9566 ft | 265 kts | 335° |
| 2026-04-28 17:55 | 51.98513 | 13.07472 | 9243 ft | 262 kts | 335° |
| 2026-04-28 17:55 | 52.00153 | 13.06379 | 8739 ft | 258 kts | 346° |
| 2026-04-28 17:55 | 52.01933 | 13.05907 | 8155 ft | 259 kts | 354° |
| 2026-04-28 17:56 | 52.03706 | 13.05597 | 7690 ft | 254 kts | 355° |
| 2026-04-28 17:56 | 52.05476 | 13.05297 | 7404 ft | 250 kts | 355° |
| 2026-04-28 17:56 | 52.07187 | 13.04998 | 6943 ft | 243 kts | 355° |
| 2026-04-28 17:56 | 52.08815 | 13.04703 | 6479 ft | 228 kts | 355° |
| 2026-04-28 17:57 | 52.10384 | 13.04406 | 5999 ft | 226 kts | 355° |
| 2026-04-28 17:57 | 52.11926 | 13.04284 | 5528 ft | 224 kts | 3° |
| 2026-04-28 17:57 | 52.13473 | 13.04381 | 5061 ft | 221 kts | 5° |
| 2026-04-28 17:57 | 52.15003 | 13.04486 | 4991 ft | 222 kts | 5° |
| 2026-04-28 17:58 | 52.16564 | 13.04602 | 4976 ft | 226 kts | 5° |
| 2026-04-28 17:58 | 52.18148 | 13.04721 | 4975 ft | 228 kts | 5° |
| 2026-04-28 17:58 | 52.19735 | 13.04841 | 4982 ft | 228 kts | 5° |
| 2026-04-28 17:58 | 52.21317 | 13.05042 | 4969 ft | 226 kts | 14° |
| 2026-04-28 17:59 | 52.22684 | 13.06067 | 4957 ft | 207 kts | 33° |
| 2026-04-28 17:59 | 52.23852 | 13.07320 | 4854 ft | 203 kts | 34° |
| 2026-04-28 17:59 | 52.25039 | 13.08623 | 4613 ft | 205 kts | 34° |
| 2026-04-28 17:59 | 52.26238 | 13.09935 | 4271 ft | 208 kts | 34° |
| 2026-04-28 18:00 | 52.27433 | 13.11241 | 4005 ft | 204 kts | 35° |
| 2026-04-28 18:00 | 52.28584 | 13.12538 | 3986 ft | 197 kts | 39° |
| 2026-04-28 18:00 | 52.29279 | 13.14407 | 3855 ft | 196 kts | 78° |
| 2026-04-28 18:00 | 52.29372 | 13.16548 | 3807 ft | 182 kts | 81° |
| 2026-04-28 18:01 | 52.29500 | 13.17897 | 3701 ft | 184 kts | 76° |
| 2026-04-28 18:01 | 52.29795 | 13.19881 | 3560 ft | 175 kts | 70° |
| 2026-04-28 18:01 | 52.30189 | 13.21707 | 3454 ft | 166 kts | 68° |
| 2026-04-28 18:01 | 52.30617 | 13.23403 | 3345 ft | 156 kts | 64° |
| 2026-04-28 18:02 | 52.31066 | 13.25032 | 3185 ft | 155 kts | 63° |
| 2026-04-28 18:02 | 52.31545 | 13.26691 | 3030 ft | 167 kts | 63° |
| 2026-04-28 18:02 | 52.32011 | 13.28456 | 2844 ft | 166 kts | 66° |
| 2026-04-28 18:02 | 52.32389 | 13.30232 | 2614 ft | 163 kts | 67° |
| 2026-04-28 18:03 | 52.32792 | 13.31944 | 2293 ft | 162 kts | 66° |
| 2026-04-28 18:03 | 52.33209 | 13.33630 | 2023 ft | 158 kts | 66° |
| 2026-04-28 18:03 | 52.33630 | 13.35265 | 1688 ft | 158 kts | 66° |
| 2026-04-28 18:03 | 52.34041 | 13.36951 | 1461 ft | 158 kts | 68° |
| 2026-04-28 18:04 | 52.34380 | 13.38624 | 1357 ft | 142 kts | 70° |
| 2026-04-28 18:04 | 52.34685 | 13.40088 | 1107 ft | 142 kts | 68° |
| 2026-04-28 18:04 | 52.35112 | 13.41922 | 1062 ft | 197 kts | 67° |
| 2026-04-28 18:04 | 52.35663 | 13.44033 | 955 ft | 189 kts | 64° |
| 2026-04-28 18:05 | 52.36088 | 13.45719 | 661 ft | 140 kts | 66° |
| 2026-04-28 18:05 | 52.36304 | 13.46703 | 403 ft | 143 kts | 70° |
| 2026-04-28 18:05 | 52.36807 | 13.48784 | 210 ft | 136 kts | 64° |
| 2026-04-28 18:05 | 52.37170 | 13.50258 | 198 ft | 147 kts | 66° |
| 2026-04-28 18:06 | 52.37533 | 13.51772 | 217 ft | 142 kts | 67° |
| 2026-04-28 18:06 | 52.37919 | 13.53474 | 364 ft | 183 kts | 68° |
| 2026-04-28 18:06 | 52.38422 | 13.55505 | 687 ft | 198 kts | 61° |
| 2026-04-28 18:06 | 52.38980 | 13.57654 | 1026 ft | 220 kts | 68° |
| 2026-04-28 18:07 | 52.39519 | 13.60062 | 1476 ft | 225 kts | 65° |
| 2026-04-28 18:07 | 52.40417 | 13.62126 | 2409 ft | 217 kts | 47° |
| 2026-04-28 18:07 | 52.41693 | 13.63589 | 2897 ft | 229 kts | 25° |
| 2026-04-28 18:07 | 52.43155 | 13.64516 | 3714 ft | 228 kts | 21° |
| 2026-04-28 18:08 | 52.44657 | 13.65423 | 4227 ft | 232 kts | 21° |
| 2026-04-28 18:08 | 52.46181 | 13.66329 | 4794 ft | 233 kts | 20° |
| 2026-04-28 18:08 | 52.47720 | 13.67244 | 5404 ft | 236 kts | 20° |
| 2026-04-28 18:08 | 52.49268 | 13.68169 | 6205 ft | 237 kts | 20° |
| 2026-04-28 18:09 | 52.50868 | 13.68822 | 6966 ft | 239 kts | 4° |
| 2026-04-28 18:09 | 52.52528 | 13.68548 | 7669 ft | 243 kts | 344° |
| 2026-04-28 18:09 | 52.53963 | 13.67059 | 8343 ft | 249 kts | 315° |
| 2026-04-28 18:09 | 52.54778 | 13.64529 | 9036 ft | 257 kts | 286° |
| 2026-04-28 18:10 | 52.54749 | 13.61574 | 9702 ft | 265 kts | 259° |
| 2026-04-28 18:10 | 52.54071 | 13.58768 | 10326 ft | 270 kts | 249° |
| 2026-04-28 18:10 | 52.53343 | 13.55921 | 10876 ft | 270 kts | 254° |
| 2026-04-28 18:10 | 52.52868 | 13.52938 | 11457 ft | 270 kts | 263° |
| 2026-04-28 18:11 | 52.52539 | 13.49897 | 12025 ft | 271 kts | 263° |
| 2026-04-28 18:11 | 52.52152 | 13.46849 | 12599 ft | 274 kts | 261° |
| 2026-04-28 18:11 | 52.51715 | 13.43799 | 13161 ft | 276 kts | 261° |
| 2026-04-28 18:11 | 52.51284 | 13.40719 | 13731 ft | 277 kts | 262° |
| 2026-04-28 18:12 | 52.50861 | 13.37603 | 14265 ft | 279 kts | 262° |
| 2026-04-28 18:12 | 52.50439 | 13.34519 | 14745 ft | 281 kts | 262° |
| 2026-04-28 18:12 | 52.50004 | 13.31366 | 15218 ft | 283 kts | 261° |
| 2026-04-28 18:12 | 52.49566 | 13.28190 | 15667 ft | 286 kts | 262° |
| 2026-04-28 18:13 | 52.49124 | 13.24983 | 16152 ft | 293 kts | 262° |
| 2026-04-28 18:13 | 52.48656 | 13.21548 | 16652 ft | 328 kts | 262° |
| 2026-04-28 18:13 | 52.48133 | 13.17799 | 17904 ft | 335 kts | 261° |
| 2026-04-28 18:13 | 52.47597 | 13.14024 | 18833 ft | 345 kts | 262° |
| 2026-04-28 18:14 | 52.47058 | 13.10139 | 19702 ft | 349 kts | 262° |
| 2026-04-28 18:14 | 52.46514 | 13.06236 | 20589 ft | 353 kts | 261° |
| 2026-04-28 18:14 | 52.45959 | 13.02285 | 21433 ft | 358 kts | 261° |
| 2026-04-28 18:14 | 52.45402 | 12.98325 | 22261 ft | 363 kts | 261° |
| 2026-04-28 18:15 | 52.44820 | 12.94264 | 23122 ft | 367 kts | 261° |
| 2026-04-28 18:15 | 52.44253 | 12.90161 | 23964 ft | 371 kts | 261° |
| 2026-04-28 18:15 | 52.43682 | 12.85990 | 24702 ft | 375 kts | 261° |
| 2026-04-28 18:15 | 52.43075 | 12.81753 | 25462 ft | 378 kts | 261° |
| 2026-04-28 18:16 | 52.42472 | 12.77596 | 26174 ft | 381 kts | 261° |
| 2026-04-28 18:16 | 52.41871 | 12.73395 | 26889 ft | 384 kts | 261° |
| 2026-04-28 18:16 | 52.41260 | 12.69108 | 27593 ft | 388 kts | 261° |
| 2026-04-28 18:16 | 52.40639 | 12.64792 | 28281 ft | 391 kts | 261° |
| 2026-04-28 18:17 | 52.40009 | 12.60437 | 28955 ft | 394 kts | 261° |
| 2026-04-28 18:17 | 52.39374 | 12.56048 | 29611 ft | 398 kts | 261° |
| 2026-04-28 18:17 | 52.38733 | 12.51625 | 30245 ft | 401 kts | 261° |
| 2026-04-28 18:17 | 52.38081 | 12.47124 | 30302 ft | 416 kts | 261° |
| 2026-04-28 18:18 | 52.37392 | 12.42395 | 30309 ft | 430 kts | 260° |
| 2026-04-28 18:18 | 52.36682 | 12.37574 | 30320 ft | 440 kts | 260° |
| 2026-04-28 18:18 | 52.35472 | 12.29353 | 30320 ft | 449 kts | 260° |
| 2026-04-28 18:19 | 52.33752 | 12.17743 | 30317 ft | 448 kts | 259° |
| 2026-04-28 18:19 | 52.32298 | 12.07973 | 30315 ft | 446 kts | 259° |
| 2026-04-28 18:20 | 52.30812 | 11.98066 | 30317 ft | 449 kts | 259° |
| 2026-04-28 18:20 | 52.29313 | 11.88136 | 30308 ft | 451 kts | 259° |
| 2026-04-28 18:21 | 52.27800 | 11.78167 | 30310 ft | 452 kts | 259° |
| 2026-04-28 18:21 | 52.26289 | 11.68274 | 30302 ft | 452 kts | 259° |
| 2026-04-28 18:22 | 52.24757 | 11.58314 | 30299 ft | 452 kts | 259° |
| 2026-04-28 18:22 | 52.23217 | 11.48356 | 30300 ft | 452 kts | 259° |
| 2026-04-28 18:23 | 52.21671 | 11.38414 | 30298 ft | 452 kts | 259° |
| 2026-04-28 18:23 | 52.20119 | 11.28506 | 30290 ft | 454 kts | 258° |
| 2026-04-28 18:24 | 52.18803 | 11.20149 | 30291 ft | 454 kts | 258° |
| 2026-04-28 18:24 | 52.16967 | 11.08551 | 30292 ft | 455 kts | 258° |
| 2026-04-28 18:25 | 52.15376 | 10.98579 | 30294 ft | 455 kts | 258° |
| 2026-04-28 18:26 | 52.12972 | 10.83630 | 30294 ft | 456 kts | 257° |
| 2026-04-28 18:26 | 52.10785 | 10.73883 | 30297 ft | 459 kts | 252° |
| 2026-04-28 18:27 | 52.08566 | 10.64218 | 30295 ft | 459 kts | 252° |
| 2026-04-28 18:27 | 52.06303 | 10.54478 | 30293 ft | 459 kts | 252° |
| 2026-04-28 18:28 | 52.04045 | 10.44778 | 30289 ft | 459 kts | 252° |
| 2026-04-28 18:28 | 52.01780 | 10.35102 | 30278 ft | 458 kts | 252° |
| 2026-04-28 18:29 | 51.99503 | 10.25410 | 30274 ft | 460 kts | 251° |
| 2026-04-28 18:29 | 51.97208 | 10.15692 | 30276 ft | 461 kts | 251° |
| 2026-04-28 18:30 | 51.94903 | 10.05981 | 30272 ft | 461 kts | 251° |
| 2026-04-28 18:30 | 51.92593 | 9.96277 | 30267 ft | 461 kts | 251° |
| 2026-04-28 18:31 | 51.90274 | 9.86589 | 30268 ft | 462 kts | 251° |
| 2026-04-28 18:31 | 51.87959 | 9.76962 | 30254 ft | 462 kts | 251° |
| 2026-04-28 18:32 | 51.85629 | 9.67291 | 30254 ft | 461 kts | 250° |
| 2026-04-28 18:32 | 51.83280 | 9.57638 | 30256 ft | 461 kts | 251° |
| 2026-04-28 18:33 | 51.80932 | 9.47986 | 30257 ft | 461 kts | 250° |
| 2026-04-28 18:33 | 51.78590 | 9.38415 | 30249 ft | 461 kts | 250° |
| 2026-04-28 18:34 | 51.76227 | 9.28785 | 30251 ft | 461 kts | 250° |
| 2026-04-28 18:34 | 51.73848 | 9.19161 | 30252 ft | 461 kts | 250° |
| 2026-04-28 18:35 | 51.71466 | 9.09554 | 30246 ft | 461 kts | 251° |
| 2026-04-28 18:35 | 51.69098 | 9.00031 | 30247 ft | 458 kts | 250° |
| 2026-04-28 18:36 | 51.66724 | 8.90547 | 30253 ft | 455 kts | 250° |
| 2026-04-28 18:36 | 51.64354 | 8.81104 | 30259 ft | 454 kts | 250° |
| 2026-04-28 18:37 | 51.61473 | 8.72063 | 30259 ft | 458 kts | 236° |
| 2026-04-28 18:37 | 51.56862 | 8.64932 | 30252 ft | 466 kts | 217° |
| 2026-04-28 18:38 | 51.51192 | 8.59771 | 30259 ft | 468 kts | 211° |
| 2026-04-28 18:38 | 51.45532 | 8.54683 | 30246 ft | 463 kts | 213° |
| 2026-04-28 18:39 | 51.39942 | 8.49669 | 30232 ft | 463 kts | 211° |
| 2026-04-28 18:39 | 51.34297 | 8.44697 | 30220 ft | 462 kts | 211° |
| 2026-04-28 18:40 | 51.28683 | 8.39643 | 30189 ft | 462 kts | 213° |
| 2026-04-28 18:40 | 51.23740 | 8.33489 | 30191 ft | 426 kts | 222° |
| 2026-04-28 18:40 | 51.21551 | 8.30534 | 29204 ft | 410 kts | 222° |
| 2026-04-28 18:41 | 51.19320 | 8.27528 | 28070 ft | 418 kts | 222° |
| 2026-04-28 18:41 | 51.17158 | 8.24632 | 27290 ft | 404 kts | 222° |
| 2026-04-28 18:41 | 51.14994 | 8.21734 | 26399 ft | 405 kts | 223° |
| 2026-04-28 18:41 | 51.12852 | 8.18853 | 25919 ft | 398 kts | 222° |
| 2026-04-28 18:42 | 51.10750 | 8.16044 | 25469 ft | 389 kts | 223° |
| 2026-04-28 18:42 | 51.08695 | 8.13301 | 25020 ft | 381 kts | 223° |
| 2026-04-28 18:42 | 51.06688 | 8.10601 | 24586 ft | 375 kts | 223° |
| 2026-04-28 18:42 | 51.04733 | 8.07983 | 24144 ft | 371 kts | 223° |
| 2026-04-28 18:43 | 51.02760 | 8.05367 | 23700 ft | 367 kts | 222° |
| 2026-04-28 18:43 | 51.00802 | 8.02782 | 23205 ft | 365 kts | 223° |
| 2026-04-28 18:43 | 50.98862 | 8.00186 | 22711 ft | 362 kts | 223° |
| 2026-04-28 18:43 | 50.96932 | 7.97611 | 22226 ft | 361 kts | 221° |
| 2026-04-28 18:44 | 50.95006 | 7.95064 | 21752 ft | 359 kts | 222° |
| 2026-04-28 18:44 | 50.91212 | 7.90020 | 20828 ft | 357 kts | 222° |
| 2026-04-28 18:44 | 50.89304 | 7.87506 | 20377 ft | 356 kts | 220° |
| 2026-04-28 18:45 | 50.87397 | 7.84996 | 19926 ft | 355 kts | 220° |
| 2026-04-28 18:45 | 50.85496 | 7.82494 | 19486 ft | 355 kts | 221° |
| 2026-04-28 18:45 | 50.83607 | 7.79980 | 19054 ft | 354 kts | 221° |
| 2026-04-28 18:45 | 50.81715 | 7.77490 | 18626 ft | 354 kts | 220° |
| 2026-04-28 18:46 | 50.79820 | 7.75006 | 18156 ft | 353 kts | 220° |
| 2026-04-28 18:46 | 50.77930 | 7.72520 | 17669 ft | 353 kts | 221° |
| 2026-04-28 18:46 | 50.76057 | 7.70062 | 17213 ft | 353 kts | 221° |
| 2026-04-28 18:46 | 50.74201 | 7.67626 | 17180 ft | 342 kts | 220° |
| 2026-04-28 18:47 | 50.72370 | 7.65229 | 17174 ft | 341 kts | 220° |
| 2026-04-28 18:47 | 50.70548 | 7.62843 | 17164 ft | 339 kts | 220° |
| 2026-04-28 18:47 | 50.69343 | 7.61269 | 17150 ft | 339 kts | 220° |
| 2026-04-28 18:47 | 50.67532 | 7.58914 | 17093 ft | 336 kts | 220° |
| 2026-04-28 18:48 | 50.65752 | 7.56586 | 16659 ft | 330 kts | 221° |
| 2026-04-28 18:48 | 50.63983 | 7.54281 | 16139 ft | 327 kts | 220° |
| 2026-04-28 18:48 | 50.62232 | 7.51997 | 15624 ft | 325 kts | 220° |
| 2026-04-28 18:48 | 50.60493 | 7.49737 | 15130 ft | 323 kts | 220° |
| 2026-04-28 18:49 | 50.58764 | 7.47489 | 14639 ft | 321 kts | 220° |
| 2026-04-28 18:49 | 50.57626 | 7.46011 | 14319 ft | 319 kts | 221° |
| 2026-04-28 18:49 | 50.55352 | 7.43081 | 13649 ft | 318 kts | 220° |
| 2026-04-28 18:49 | 50.53653 | 7.40868 | 13122 ft | 317 kts | 220° |
| 2026-04-28 18:50 | 50.51955 | 7.38654 | 12599 ft | 316 kts | 219° |
| 2026-04-28 18:50 | 50.50261 | 7.36465 | 12166 ft | 312 kts | 219° |
| 2026-04-28 18:50 | 50.48630 | 7.34367 | 12151 ft | 295 kts | 219° |
| 2026-04-28 18:50 | 50.47077 | 7.32362 | 12143 ft | 283 kts | 220° |
| 2026-04-28 18:51 | 50.45527 | 7.30358 | 12137 ft | 312 kts | 219° |
| 2026-04-28 18:51 | 50.43842 | 7.28184 | 12151 ft | 318 kts | 219° |
| 2026-04-28 18:51 | 50.42152 | 7.26013 | 11966 ft | 311 kts | 219° |
| 2026-04-28 18:51 | 50.40496 | 7.23883 | 11493 ft | 304 kts | 219° |
| 2026-04-28 18:52 | 50.38897 | 7.21829 | 11023 ft | 290 kts | 219° |
| 2026-04-28 18:52 | 50.37365 | 7.19861 | 10554 ft | 282 kts | 219° |
| 2026-04-28 18:52 | 50.35835 | 7.17900 | 10092 ft | 284 kts | 219° |
| 2026-04-28 18:52 | 50.34301 | 7.15930 | 9590 ft | 285 kts | 219° |
| 2026-04-28 18:53 | 50.32818 | 7.13875 | 9098 ft | 285 kts | 222° |
| 2026-04-28 18:53 | 50.31372 | 7.11748 | 8602 ft | 285 kts | 222° |
| 2026-04-28 18:53 | 50.29956 | 7.09616 | 8178 ft | 285 kts | 223° |
| 2026-04-28 18:53 | 50.28555 | 7.07487 | 8158 ft | 272 kts | 222° |
| 2026-04-28 18:54 | 50.27233 | 7.05474 | 8155 ft | 256 kts | 223° |
| 2026-04-28 18:54 | 50.25986 | 7.03579 | 8145 ft | 247 kts | 223° |
| 2026-04-28 18:54 | 50.24763 | 7.01715 | 8148 ft | 245 kts | 223° |
| 2026-04-28 18:54 | 50.23550 | 6.99862 | 8146 ft | 243 kts | 223° |
| 2026-04-28 18:55 | 50.22346 | 6.98017 | 8145 ft | 242 kts | 223° |
| 2026-04-28 18:55 | 50.21151 | 6.96178 | 8154 ft | 241 kts | 223° |
| 2026-04-28 18:55 | 50.19963 | 6.94351 | 8150 ft | 239 kts | 224° |
| 2026-04-28 18:55 | 50.18795 | 6.92545 | 8148 ft | 239 kts | 223° |
| 2026-04-28 18:56 | 50.17697 | 6.90611 | 8148 ft | 239 kts | 230° |
| 2026-04-28 18:56 | 50.16715 | 6.88517 | 8145 ft | 239 kts | 232° |
| 2026-04-28 18:56 | 50.15752 | 6.86402 | 8141 ft | 239 kts | 232° |
| 2026-04-28 18:56 | 50.14801 | 6.84269 | 8139 ft | 240 kts | 233° |
| 2026-04-28 18:57 | 50.13853 | 6.82143 | 8143 ft | 238 kts | 234° |
| 2026-04-28 18:57 | 50.12902 | 6.80035 | 8117 ft | 235 kts | 232° |
| 2026-04-28 18:57 | 50.11993 | 6.78004 | 7929 ft | 228 kts | 232° |
| 2026-04-28 18:57 | 50.11059 | 6.75917 | 7425 ft | 241 kts | 233° |
| 2026-04-28 18:58 | 50.10078 | 6.73731 | 6943 ft | 251 kts | 234° |
| 2026-04-28 18:58 | 50.09067 | 6.71469 | 6466 ft | 257 kts | 232° |
| 2026-04-28 18:58 | 50.08041 | 6.69157 | 5964 ft | 263 kts | 233° |
| 2026-04-28 18:58 | 50.06996 | 6.66794 | 5472 ft | 266 kts | 232° |
| 2026-04-28 18:59 | 50.05941 | 6.64413 | 5029 ft | 266 kts | 233° |
| 2026-04-28 18:59 | 50.04918 | 6.62123 | 5006 ft | 249 kts | 233° |
| 2026-04-28 18:59 | 50.03969 | 6.59984 | 4992 ft | 232 kts | 233° |
| 2026-04-28 18:59 | 50.03084 | 6.57970 | 4997 ft | 219 kts | 233° |
| 2026-04-28 19:00 | 50.02245 | 6.56065 | 4956 ft | 212 kts | 227° |
| 2026-04-28 19:00 | 50.01175 | 6.54577 | 4969 ft | 204 kts | 213° |
| 2026-04-28 19:00 | 50.00053 | 6.53208 | 4972 ft | 205 kts | 213° |
| 2026-04-28 19:00 | 49.98932 | 6.51830 | 4967 ft | 206 kts | 212° |
| 2026-04-28 19:01 | 49.97811 | 6.50441 | 4967 ft | 207 kts | 213° |
| 2026-04-28 19:01 | 49.96682 | 6.49055 | 4964 ft | 207 kts | 213° |
| 2026-04-28 19:01 | 49.95545 | 6.47672 | 4966 ft | 207 kts | 212° |
| 2026-04-28 19:01 | 49.94412 | 6.46280 | 4966 ft | 208 kts | 213° |
| 2026-04-28 19:02 | 49.93272 | 6.44880 | 4971 ft | 209 kts | 213° |
| 2026-04-28 19:02 | 49.92121 | 6.43476 | 4975 ft | 211 kts | 213° |
| 2026-04-28 19:02 | 49.90961 | 6.42071 | 4978 ft | 211 kts | 212° |
| 2026-04-28 19:02 | 49.89676 | 6.41304 | 4975 ft | 196 kts | 176° |
| 2026-04-28 19:03 | 49.88417 | 6.41893 | 4964 ft | 185 kts | 139° |
| 2026-04-28 19:03 | 49.87583 | 6.43354 | 4976 ft | 184 kts | 123° |
| 2026-04-28 19:03 | 49.86902 | 6.45035 | 4967 ft | 184 kts | 108° |
| 2026-04-28 19:03 | 49.86901 | 6.46975 | 4973 ft | 181 kts | 78° |
| 2026-04-28 19:04 | 49.87314 | 6.48870 | 4716 ft | 188 kts | 73° |
| 2026-04-28 19:04 | 49.87755 | 6.50749 | 4387 ft | 182 kts | 72° |
| 2026-04-28 19:04 | 49.88179 | 6.52599 | 3761 ft | 183 kts | 72° |
| 2026-04-28 19:04 | 49.88580 | 6.54456 | 3107 ft | 180 kts | 73° |
| 2026-04-28 19:05 | 49.89005 | 6.56248 | 2965 ft | 170 kts | 64° |
| 2026-04-28 19:05 | 49.89740 | 6.57629 | 2955 ft | 164 kts | 51° |
| 2026-04-28 19:05 | 49.90527 | 6.58921 | 2810 ft | 171 kts | 50° |
| 2026-04-28 19:05 | 49.91375 | 6.60238 | 2594 ft | 172 kts | 48° |
| 2026-04-28 19:06 | 49.92227 | 6.61554 | 2388 ft | 171 kts | 48° |
| 2026-04-28 19:06 | 49.92776 | 6.62403 | 2229 ft | 164 kts | 47° |
| 2026-04-28 19:06 | 49.93807 | 6.63958 | 1964 ft | 142 kts | 47° |
| 2026-04-28 19:06 | 49.94460 | 6.64960 | 1782 ft | 125 kts | 46° |
| 2026-04-28 19:07 | 49.95035 | 6.65849 | 1634 ft | 123 kts | 49° |
| 2026-04-28 19:07 | 49.95654 | 6.66815 | 1526 ft | 118 kts | 44° |
| 2026-04-28 19:07 | 49.96234 | 6.67665 | 1264 ft | 113 kts | 38° |
| 2026-04-28 19:07 | 49.96821 | 6.68560 | 1151 ft | 108 kts | 47° |
| 2026-04-28 19:08 | 49.97428 | 6.69497 | 1225 ft | 163 kts | 46° |
| 2026-04-28 19:08 | 49.98351 | 6.70934 | 1757 ft | 194 kts | 46° |
| 2026-04-28 19:08 | 49.99295 | 6.72432 | 2290 ft | 199 kts | 47° |
| 2026-04-28 19:08 | 50.00335 | 6.73847 | 2817 ft | 202 kts | 45° |
| 2026-04-28 19:09 | 50.01361 | 6.75430 | 3356 ft | 213 kts | 49° |
| 2026-04-28 19:09 | 50.02417 | 6.77088 | 3857 ft | 212 kts | 48° |
| 2026-04-28 19:09 | 50.03460 | 6.78666 | 4366 ft | 206 kts | 47° |
| 2026-04-28 19:09 | 50.04487 | 6.80173 | 4879 ft | 200 kts | 47° |
| 2026-04-28 19:10 | 50.05493 | 6.81640 | 5369 ft | 196 kts | 47° |
| 2026-04-28 19:10 | 50.06466 | 6.83079 | 5854 ft | 190 kts | 47° |
| 2026-04-28 19:10 | 50.07404 | 6.84478 | 6349 ft | 184 kts | 46° |
| 2026-04-28 19:10 | 50.08232 | 6.85872 | 6804 ft | 174 kts | 63° |
| 2026-04-28 19:11 | 50.08399 | 6.87689 | 7297 ft | 167 kts | 104° |
| 2026-04-28 19:11 | 50.07765 | 6.89336 | 7184 ft | 200 kts | 133° |
| 2026-04-28 19:11 | 50.06463 | 6.90372 | 7160 ft | 224 kts | 165° |
| 2026-04-28 19:11 | 50.04870 | 6.90780 | 7145 ft | 239 kts | 169° |
| 2026-04-28 19:12 | 50.03179 | 6.91135 | 7142 ft | 250 kts | 169° |
| 2026-04-28 19:12 | 50.01418 | 6.91514 | 7138 ft | 259 kts | 169° |
| 2026-04-28 19:12 | 49.99631 | 6.91904 | 7136 ft | 266 kts | 168° |
| 2026-04-28 19:12 | 49.97781 | 6.92318 | 7136 ft | 271 kts | 168° |
| 2026-04-28 19:13 | 49.95936 | 6.92734 | 7138 ft | 263 kts | 169° |
| 2026-04-28 19:13 | 49.94149 | 6.93120 | 7133 ft | 256 kts | 168° |
| 2026-04-28 19:13 | 49.92398 | 6.93504 | 7131 ft | 251 kts | 168° |
| 2026-04-28 19:13 | 49.90683 | 6.93894 | 7124 ft | 247 kts | 168° |
| 2026-04-28 19:14 | 49.88990 | 6.94272 | 7125 ft | 244 kts | 169° |
| 2026-04-28 19:14 | 49.87312 | 6.94636 | 7121 ft | 242 kts | 167° |
| 2026-04-28 19:14 | 49.85657 | 6.95000 | 7119 ft | 238 kts | 167° |
| 2026-04-28 19:14 | 49.84043 | 6.95361 | 7101 ft | 236 kts | 168° |
| 2026-04-28 19:15 | 49.82419 | 6.95723 | 7097 ft | 235 kts | 167° |
| 2026-04-28 19:15 | 49.80802 | 6.96085 | 7099 ft | 234 kts | 169° |
| 2026-04-28 19:15 | 49.79191 | 6.96427 | 7101 ft | 233 kts | 167° |
| 2026-04-28 19:15 | 49.78128 | 6.96672 | 7099 ft | 232 kts | 167° |
| 2026-04-28 19:16 | 49.75997 | 6.97138 | 7091 ft | 231 kts | 169° |
| 2026-04-28 19:16 | 49.74401 | 6.97476 | 7088 ft | 231 kts | 167° |
| 2026-04-28 19:16 | 49.72807 | 6.97832 | 7089 ft | 231 kts | 168° |
| 2026-04-28 19:16 | 49.71214 | 6.98187 | 7086 ft | 230 kts | 168° |
| 2026-04-28 19:17 | 49.69622 | 6.98538 | 7087 ft | 231 kts | 169° |
| 2026-04-28 19:17 | 49.68024 | 6.98885 | 7086 ft | 232 kts | 169° |
| 2026-04-28 19:17 | 49.66444 | 6.99230 | 7073 ft | 231 kts | 168° |
| 2026-04-28 19:17 | 49.64853 | 6.99574 | 7072 ft | 230 kts | 167° |
| 2026-04-28 19:18 | 49.63333 | 7.00209 | 7082 ft | 224 kts | 155° |
| 2026-04-28 19:18 | 49.61897 | 7.01104 | 7086 ft | 221 kts | 153° |
| 2026-04-28 19:18 | 49.60472 | 7.02024 | 7083 ft | 222 kts | 153° |
| 2026-04-28 19:18 | 49.59066 | 7.02934 | 6945 ft | 219 kts | 153° |
| 2026-04-28 19:19 | 49.57645 | 7.03870 | 6527 ft | 231 kts | 153° |
| 2026-04-28 19:19 | 49.56145 | 7.04884 | 6099 ft | 240 kts | 153° |
| 2026-04-28 19:19 | 49.54589 | 7.05927 | 5676 ft | 247 kts | 153° |
| 2026-04-28 19:19 | 49.53012 | 7.06980 | 5277 ft | 246 kts | 153° |
| 2026-04-28 19:20 | 49.51436 | 7.07994 | 5002 ft | 243 kts | 153° |
| 2026-04-28 19:20 | 49.49895 | 7.08935 | 5002 ft | 234 kts | 153° |
| 2026-04-28 19:20 | 49.48405 | 7.09832 | 4984 ft | 226 kts | 153° |
| 2026-04-28 19:20 | 49.46977 | 7.10691 | 4977 ft | 216 kts | 153° |
| 2026-04-28 19:21 | 49.45597 | 7.11507 | 4970 ft | 210 kts | 153° |
| 2026-04-28 19:21 | 49.44243 | 7.12295 | 4970 ft | 205 kts | 153° |
| 2026-04-28 19:21 | 49.42929 | 7.13069 | 4972 ft | 200 kts | 154° |
| 2026-04-28 19:21 | 49.41840 | 7.14260 | 4969 ft | 188 kts | 122° |
| 2026-04-28 19:22 | 49.41354 | 7.16073 | 4981 ft | 182 kts | 103° |
| 2026-04-28 19:22 | 49.41241 | 7.16679 | 4976 ft | 180 kts | 103° |
| 2026-04-28 19:22 | 49.40678 | 7.19701 | 4982 ft | 174 kts | 103° |
| 2026-04-28 19:22 | 49.40407 | 7.21505 | 4980 ft | 173 kts | 99° |
| 2026-04-28 19:23 | 49.40297 | 7.23309 | 4990 ft | 167 kts | 85° |
| 2026-04-28 19:23 | 49.40387 | 7.25086 | 4927 ft | 168 kts | 85° |
| 2026-04-28 19:23 | 49.40523 | 7.26883 | 4727 ft | 170 kts | 82° |
| 2026-04-28 19:23 | 49.40681 | 7.28714 | 4485 ft | 173 kts | 82° |
| 2026-04-28 19:24 | 49.40844 | 7.30553 | 4251 ft | 174 kts | 82° |
| 2026-04-28 19:24 | 49.41007 | 7.32378 | 4017 ft | 171 kts | 82° |
| 2026-04-28 19:24 | 49.41162 | 7.34126 | 3798 ft | 161 kts | 82° |
| 2026-04-28 19:24 | 49.41307 | 7.35772 | 3580 ft | 151 kts | 82° |
| 2026-04-28 19:25 | 49.41443 | 7.37318 | 3396 ft | 138 kts | 81° |
| 2026-04-28 19:25 | 49.41566 | 7.38726 | 3214 ft | 129 kts | 80° |
| 2026-04-28 19:25 | 49.41679 | 7.40001 | 3045 ft | 120 kts | 81° |
| 2026-04-28 19:25 | 49.41794 | 7.41308 | 2890 ft | 123 kts | 81° |
| 2026-04-28 19:26 | 49.41907 | 7.42596 | 2725 ft | 119 kts | 80° |
| 2026-04-28 19:26 | 49.42016 | 7.43831 | 2568 ft | 117 kts | 80° |
| 2026-04-28 19:26 | 49.42127 | 7.45063 | 2416 ft | 116 kts | 81° |
| 2026-04-28 19:26 | 49.42231 | 7.46301 | 2260 ft | 117 kts | 80° |
| 2026-04-28 19:27 | 49.42344 | 7.47543 | 2107 ft | 118 kts | 79° |
| 2026-04-28 19:27 | 49.42455 | 7.48798 | 1948 ft | 120 kts | 78° |
| 2026-04-28 19:27 | 49.42568 | 7.50062 | 1790 ft | 119 kts | 79° |
| 2026-04-28 19:27 | 49.42677 | 7.51374 | 1633 ft | 132 kts | 81° |
| 2026-04-28 19:28 | 49.42812 | 7.52873 | 1448 ft | 151 kts | 82° |
| 2026-04-28 19:28 | 49.42957 | 7.54547 | 1243 ft | 162 kts | 78° |
| 2026-04-28 19:28 | 49.43101 | 7.56135 | 1043 ft | 142 kts | 78° |
| 2026-04-28 19:28 | 49.43222 | 7.57567 | 842 ft | 133 kts | 79° |
| 2026-04-28 19:29 | 49.43335 | 7.58874 | 771 ft | 105 kts | 82° |
| 2026-04-28 19:29 | 49.43375 | 7.59326 | 776 ft | 23 kts | 83° |
| 2026-04-28 19:29 | 49.43378 | 7.59416 | 775 ft | 1 kts | 87° |
| 2026-04-28 19:29 | 49.43395 | 7.59438 | 775 ft | 6 kts | 291° |
| 2026-04-28 19:30 | 49.43383 | 7.59314 | 779 ft | 20 kts | 263° |
| 2026-04-28 19:30 | 49.43360 | 7.59057 | 773 ft | 27 kts | 263° |
| 2026-04-28 19:30 | 49.43333 | 7.58748 | 770 ft | 32 kts | 262° |
| 2026-04-28 19:30 | 49.43309 | 7.58481 | 767 ft | 15 kts | 262° |
| 2026-04-28 19:31 | 49.43235 | 7.58414 | 768 ft | 12 kts | 178° |
| 2026-04-28 19:31 | 49.43137 | 7.58425 | 769 ft | 14 kts | 179° |
| 2026-04-28 19:31 | 49.43031 | 7.58428 | 769 ft | 14 kts | 167° |
| 2026-04-28 19:31 | 49.42932 | 7.58437 | 770 ft | 15 kts | 193° |
| 2026-04-28 19:32 | 49.42848 | 7.58348 | 769 ft | 17 kts | 218° |
| 2026-04-28 19:32 | 49.42765 | 7.58289 | 769 ft | 10 kts | 105° |
| 2026-04-28 19:32 | 49.42736 | 7.58307 | 769 ft | 0 kts | 189° |